Airfield :
LOGIN :

Register | Disclaimer

   EN    FR    IT 

 










Legend :    VFR   Marginal VFR   IFR   Intensive IFR   Very Intensive IFR
Visi :
Ceiling :
>= 8 km
>= 3000ft
5 to 8 km
1000 to 3000 ft
1500m to 5 km
500 to 1000 ft
800 to 1500m
200 to 500 ft
< 800m
< 200 ft
Symbols :   Thunderstorms  Fog  Heavy snow  Heavy precipitations  Wind > 20 kt
SIGMETs :     Misc.  Thunderstorms  Icing  Turbulence  Mountain Waves  Volcanic Ashes






- Airport Elevation : 285 ft
- IATA code : OZP


LEMO - Sevilla Moron

CURRENT METAR :
  • 081730Z 26011KT 230V290 CAVOK 36/17 Q1014 NOSIG

EXPIRED METARs :
  • 081700Z 26010KT 230V290 CAVOK 37/16 Q1014 NOSIG
  • 081630Z 29006KT 240V330 CAVOK 38/15 Q1014 NOSIG
  • 081600Z 30003KT CAVOK 38/14 Q1014 NOSIG
  • 081530Z VRB05KT CAVOK 37/14 Q1014 NOSIG

TAF TAF LEMO
Valid from the 08 at 15:00 until the 09 at 15:00 UTC


081400Z 0815/0915 28005KT CAVOK TX39/0915Z TN22/0905Z
BECMG 0816/0818 22010KT
BECMG 0822/0824 VRB03KT
BECMG 0913/0915 24010KT



MET'MAP, your aeronautical weather chart ! - Copyright ORBIFLY December 2007 - Disclaimer

ORBIFLY MET'MAP TEAM :

Programming & Development : Alexandra Zaïnal
Concept & original design : Baudouin d'Aumeries
Assistance for programming : Marc-Olivier Méhu
Technical & hardware support : Manuel Goepfert

Contact : metmap@orbifly.com




SOURCES & CREDITS :

   NOAA